KPAN

Payson Airport

Payson, Arizona, USA
METAR KPAN 230535Z AUTO 00000KT 10SM FEW055 14/10 A3009 RMK AO2
Observed Flight Rules
Oct-23 @ 05:35 UTC (22 minutes ago) Visual Flight Rules
Visibility Clouds
10 miles
  • Few at 5,500' AGL
Temperatures Readings
Current 14°C / 57°F
Dewpoint 10°C / 50°F
Humidity 77%
Altimeter 30.09" Hg
Pressure 1019 hPa
Elevation 1572
METAR KPAN 230535Z AUTO 00000KT 10SM FEW055 14/10 A3009 RMK AO2
Observed Flight Rules
Oct-23 @ 05:35 UTC
(22 minutes ago)
VFR
Clouds
  • Few at 5,500' AGL
Temperature Dewpoint
14°C / 57°F 10°C / 50°F
Humidity Altimeter Pressure
77% 30.09" Hg 1019 hPa